• Join FlightAware (Why Join?)
  • Login
  • US Flag 
12:08PM EST


 

Airport Tracker/Info


-or-


 

Live Flight TrackerFlight Track Log ✈ AWE1940 ✈ 15-May-2013 ✈ KCLT - KALB

Flight Track Log - Related Links

Times and Time Zones

All times are in EDT time to prevent confusion due to time zone crossing. See the AWE1940 flight status page for this flight to view local times or setup timezone preferences in your user account.

Time Position Orientation Groundspeed Altitude Reporting Facility
EDT Latitude Longitude Course Direction KTS MPH feet Rate Location/Type
10:22PM 35.1928 -80.9356 72° East 156 180 1,800  Level Atlanta Center
10:22PM 35.1700 -80.9339 177° South 155 178 2,600 1,780 Climbing Atlanta Center
10:23PM 35.1331 -80.8794 130° Southeast 274 315 4,500 2,705 Climbing Atlanta Center
10:24PM 35.1083 -80.6278 29° Northeast  Level FlightAware Approximate
10:24PM 35.1706 -80.7967 61° Northeast 306 352 8,100  Level Atlanta Center
10:25PM 35.2037 -80.5640 30° Northeast  Level FlightAware Approximate
10:25PM 35.1764 -80.7786 68° East 288 331 8,700  Level Atlanta Center
10:26PM 35.2977 -80.4969 30° Northeast  Level FlightAware Approximate
10:26PM 35.2133 -80.6831 65° Northeast 343 395 11,000  Level Atlanta Center
10:27PM 35.3507 -80.4008 72° East  Level FlightAware Approximate
10:27PM 35.2564 -80.5772 63° Northeast 355 409 13,900  Level Atlanta Center
10:28PM 35.3050 -80.4581 63° Northeast 374 430 16,500 2,550 Climbing Atlanta Center
10:29PM 35.3892 -80.2519 63° Northeast 397 457 20,700 2,468 Climbing Washington Center
10:30PM 35.4358 -80.1222 66° East 403 464 23,000 2,085 Climbing Washington Center
10:31PM 35.4675 -80.0014 72° East 409 471 24,800 1,537 Climbing Washington Center
10:32PM 35.5061 -79.8581 72° East 415 478 26,100 1,388 Climbing Washington Center
10:33PM 35.5450 -79.7069 72° East 438 504 27,600 1,475 Climbing Washington Center
10:34PM 35.5883 -79.5331 73° East 472 543 29,000 1,613 Climbing Washington Center
10:35PM 35.6261 -79.3969 71° East 481 554 30,800 1,918 Climbing Washington Center
10:36PM 35.6847 -79.2567 63° Northeast 469 540 32,900 1,426 Climbing Washington Center
10:37PM 35.7411 -79.1183 63° Northeast 451 519 33,700 893 Climbing Washington Center
10:38PM 35.7997 -78.9700 64° Northeast 451 519 34,700 1,100 Climbing Washington Center
10:39PM 35.8578 -78.8289 63° Northeast 461 531 35,900 1,119 Climbing Washington Center
10:40PM 35.9219 -78.6903 60° Northeast 461 531 36,900 559 Climbing Washington Center
10:41PM 35.9881 -78.5544 59° Northeast 461 531 37,000 50 Climbing Washington Center
10:42PM 36.0539 -78.4181 59° Northeast 461 531 37,000  Level Washington Center
10:43PM 36.1197 -78.2817 59° Northeast 461 531 37,000  Level Washington Center
10:44PM 36.1831 -78.1475 60° Northeast 456 525 37,000  Level Washington Center
10:45PM 36.2486 -78.0106 59° Northeast 456 525 37,000  Level Washington Center
10:46PM 36.3136 -77.8758 59° Northeast 456 525 37,000  Level Washington Center
10:47PM 36.3789 -77.7383 59° Northeast 456 525 37,000  Level Washington Center
10:48PM 36.4442 -77.5878 62° Northeast 456 525 37,000  Level Washington Center
10:49PM 36.5067 -77.4550 60° Northeast 451 519 37,000  Level Washington Center
10:50PM 36.5714 -77.3169 60° Northeast 456 525 37,000  Level Washington Center
10:51PM 36.6358 -77.1811 59° Northeast 456 525 37,000  Level Washington Center
10:52PM 36.6981 -77.0453 60° Northeast 451 519 37,000  Level Washington Center
10:53PM 36.7911 -76.9381 43° Northeast 446 513 37,000  Level Washington Center
10:54PM 36.8922 -76.8489 35° Northeast 439 505 37,000  Level Washington Center
10:55PM 36.9847 -76.7672 35° Northeast 444 511 37,000  Level Washington Center
10:56PM 37.0858 -76.6750 36° Northeast 444 511 37,000  Level Washington Center
10:57PM 37.1867 -76.5850 35° Northeast 444 511 37,000  Level Washington Center
10:58PM 37.2875 -76.4925 36° Northeast 444 511 37,000  Level Washington Center
10:59PM 37.3906 -76.3969 36° Northeast 444 511 37,000  Level Washington Center
11:00PM 37.4953 -76.3194 30° Northeast 449 517 37,000  Level Washington Center
11:01PM 37.6042 -76.2419 29° Northeast 449 517 37,000  Level Washington Center
11:02PM 37.7108 -76.1667 29° Northeast 444 511 37,000  Level Washington Center
11:03PM 37.8303 -76.0808 30° Northeast 439 505 37,000  Level Washington Center
11:04PM 37.9367 -76.0025 30° Northeast 439 505 37,000  Level Washington Center
11:05PM 38.0475 -75.9239 29° Northeast 445 512 37,000  Level Washington Center
11:06PM 38.1542 -75.8453 30° Northeast 440 506 37,000  Level Washington Center
11:07PM 38.2628 -75.7717 28° Northeast 440 506 37,000  Level Washington Center
11:08PM 38.3753 -75.6975 27° Northeast 440 506 37,000  Level Washington Center
11:09PM 38.4817 -75.6183 30° Northeast 440 506 37,000  Level Washington Center
11:10PM 38.5881 -75.5358 31° Northeast 440 506 37,000 -49 Level Washington Center
11:11PM 38.6983 -75.4586 29° Northeast 440 506 36,900  Descending Washington Center
11:12PM 38.8047 -75.3786 30° Northeast 440 506 37,000 51 Climbing Washington Center
11:13PM 38.9150 -75.3036 28° Northeast 440 506 37,000 -50 Level Washington Center
11:14PM 39.0211 -75.2203 31° Northeast 440 506 36,900  Descending Washington Center
11:15PM 39.1272 -75.1419 30° Northeast 440 506 37,000 50 Climbing Washington Center
11:16PM 39.2331 -75.0611 31° Northeast 440 506 37,000  Level Washington Center
11:17PM 39.3411 -74.9825 29° Northeast 440 506 37,000  Level Washington Center
11:18PM 39.4469 -74.9008 31° Northeast 440 506 37,000  Level Washington Center
11:19PM 39.5547 -74.8192 30° Northeast 440 506 37,000  Level Washington Center
11:20PM 39.6606 -74.7369 31° Northeast 440 506 37,000  Level Washington Center
11:21PM 39.7742 -74.6603 27° Northeast 452 520 37,000  Level New York Center
11:22PM 39.8792 -74.5769 31° Northeast 447 514 37,000  Level New York Center
11:23PM 39.9881 -74.4961 30° Northeast 442 509 37,000  Level New York Center
11:24PM 40.0994 -74.4044 32° Northeast 437 503 37,000 -50 Level New York Center
11:25PM 40.2061 -74.3175 32° Northeast 437 503 36,900 -492 Descending New York Center
11:26PM 40.3150 -74.2361 30° Northeast 437 503 36,000 -934 Descending New York Center
11:27PM 40.4250 -74.1789 22° Northeast 430 495 35,000 -966 Descending New York Center
11:28PM 40.5464 -74.1603 North 423 487 34,100 -585 Descending New York Center
11:31PM 40.8331 -74.1217 North 449 517 33,000 -301 Descending Boston Center
11:32PM 40.9772 -74.0978 North 437 503 33,000  Level Boston Center
11:33PM 41.0942 -74.0789 North 431 496 33,000 -150 Level Boston Center
11:34PM 41.2175 -74.0600 North 426 490 32,700 -2,050 Descending Boston Center
11:35PM 41.3386 -74.0381 North 435 501 28,900 -4,350 Descending Boston Center
11:36PM 41.4681 -74.0192 North 452 520 24,000 -3,900 Descending Boston Center
11:37PM 41.5936 -73.9972 North 458 527 21,100 -2,818 Descending Boston Center
11:38PM 41.7211 -73.9753 North 443 510 17,800 -2,682 Descending Boston Center
11:39PM 41.8422 -73.9561 North 398 458 15,200 -2,350 Descending Boston Center
11:40PM 41.9508 -73.9392 North 367 422 13,100 -2,160 Descending Boston Center
11:40PM 41.9736 -73.9369 North 357 411 12,500 -1,692 Descending Boston Center
11:41PM 42.0114 -73.9294 North 351 404 12,000 -1,071 Descending Boston Center
11:42PM 42.1200 -73.9067 North 370 426 11,000 -741 Descending Boston Center
11:42PM 42.1533 -73.9019 North 361 415 11,000 -197 Level Boston Center
11:43PM 42.2244 -73.8925 North 382 440 10,800 -400 Descending Boston Center
11:43PM 42.2431 -73.8872 12° North 369 425 10,600 -689 Descending Boston Center
11:44PM 42.3122 -73.8775 North 301 346 10,100 -700 Descending Boston Center
11:44PM 42.3350 -73.8725 North 322 371 9,900 -1,400 Descending Boston Center
11:45PM 42.3894 -73.8653 North 262 302 8,700 -1,600 Descending Boston Center
11:45PM 42.4042 -73.8600 15° North 279 321 8,300 -1,770 Descending Boston Center
11:46PM 42.4622 -73.8642 357° North 260 299 6,900 -2,000 Descending Boston Center
11:46PM 42.4831 -73.8647 359° North 264 304 6,300 -1,672 Descending Boston Center
11:47PM 42.5350 -73.8769 350° North 259 298 5,200 -1,400 Descending Boston Center
11:47PM 42.5475 -73.8772 359° North 259 298 4,900 -1,200 Descending Boston Center
11:48PM 42.6039 -73.8872 353° North 251 289 4,000 -900 Descending Boston Center
11:48PM 42.6183 -73.8903 351° North 253 291 4,000 -295 Level Boston Center
11:49PM 42.6703 -73.8944 357° North 243 280 3,700 -500 Descending Boston Center
11:49PM 42.6850 -73.8975 351° North 253 291 3,500 -800 Descending Boston Center
11:50PM 42.7328 -73.9042 354° North 217 250 2,900 -700 Descending Boston Center
11:50PM 42.7475 -73.9017 North 240 276 2,800 -393 Descending Boston Center
11:51PM 42.7889 -73.9056 356° North 183 211 2,500 -300 Descending Boston Center
11:51PM 42.7972 -73.9086 345° North 215 247 2,500  Level Boston Center